Time;durP1;ratioP1;P1;durP2;ratioP2;P2;SDS_P1;SDS_P2;PMS_P1;PMS_P2;Temp;Humidity;BMP_temperature;BMP_pressure;BME280_temperature;BME280_humidity;BME280_pressure;Samples;Min_cycle;Max_cycle;Signal;HPM_P1;HPM_P2
2022/07/29 00:01:43;;;;;;;4.33;2.00;;;19.80;99.90;;;;;;5151096;27;20235;-79
2022/07/29 00:04:12;;;;;;;2.70;1.90;;;19.70;99.90;;;;;;5155869;27;20197;-77
2022/07/29 00:06:42;;;;;;;1.87;1.70;;;19.60;99.90;;;;;;5159288;27;20206;-78
2022/07/29 00:09:10;;;;;;;2.07;1.87;;;19.60;99.90;;;;;;5156963;27;20205;-76
2022/07/29 00:11:39;;;;;;;1.97;1.70;;;19.50;99.90;;;;;;5139689;27;20286;-79
2022/07/29 00:14:08;;;;;;;2.97;1.73;;;19.50;99.90;;;;;;5138588;27;20186;-77
2022/07/29 00:16:37;;;;;;;4.53;1.77;;;19.50;99.90;;;;;;5127495;27;20635;-78
2022/07/29 00:19:06;;;;;;;2.23;1.67;;;19.40;99.90;;;;;;5134728;27;20711;-77
2022/07/29 00:21:35;;;;;;;1.93;1.50;;;19.30;99.90;;;;;;5128639;27;20205;-76
2022/07/29 00:24:03;;;;;;;1.60;1.50;;;19.30;99.90;;;;;;5136188;27;20225;-77
2022/07/29 00:26:32;;;;;;;1.57;1.40;;;19.30;99.90;;;;;;5136613;27;20210;-77
2022/07/29 00:29:01;;;;;;;1.77;1.47;;;19.20;99.90;;;;;;5136849;27;20217;-76
2022/07/29 00:31:51;;;;;;;1.53;1.43;;;19.20;99.90;;;;;;5136257;27;20567;-76
2022/07/29 00:37:23;;;;;;;3.73;1.30;;;19.00;99.90;;;;;;5072436;28;20207;-76
2022/07/29 00:39:51;;;;;;;1.37;1.27;;;19.00;99.90;;;;;;5072058;28;20227;-77
2022/07/29 00:42:19;;;;;;;2.03;1.40;;;18.90;99.90;;;;;;5101812;27;20245;-75
2022/07/29 00:44:48;;;;;;;1.60;1.40;;;18.90;99.90;;;;;;5135611;27;20213;-77
2022/07/29 00:47:20;;;;;;;1.80;1.50;;;18.90;99.90;;;;;;5135275;27;20213;-77
2022/07/29 00:49:48;;;;;;;2.70;1.60;;;18.80;99.90;;;;;;5135501;27;20239;-74
2022/07/29 00:52:16;;;;;;;4.43;1.57;;;18.80;99.90;;;;;;5135641;27;20209;-77
2022/07/29 00:54:47;;;;;;;2.13;1.53;;;18.80;99.90;;;;;;5135267;27;20178;-76
2022/07/29 00:57:15;;;;;;;2.70;1.60;;;18.80;99.90;;;;;;5135104;27;20239;-77
2022/07/29 00:59:44;;;;;;;1.60;1.50;;;18.80;99.90;;;;;;5134963;27;20264;-76
2022/07/29 01:02:12;;;;;;;2.10;1.67;;;18.70;99.90;;;;;;5134843;27;20228;-76
2022/07/29 01:04:42;;;;;;;2.03;1.50;;;18.70;99.90;;;;;;5135675;27;20558;-76
2022/07/29 01:07:11;;;;;;;1.67;1.40;;;18.70;99.90;;;;;;5134949;27;20262;-76
2022/07/29 01:09:40;;;;;;;2.60;1.70;;;18.70;99.90;;;;;;5134697;27;20698;-76
2022/07/29 01:12:15;;;;;;;2.83;1.67;;;18.70;99.90;;;;;;5135398;27;20225;-77
2022/07/29 01:14:45;;;;;;;1.73;1.50;;;18.70;99.90;;;;;;5135537;27;20706;-77
2022/07/29 01:17:18;;;;;;;2.67;1.57;;;18.60;99.90;;;;;;5135150;27;20228;-78
2022/07/29 01:19:59;;;;;;;2.67;1.70;;;18.60;99.90;;;;;;5126161;27;20213;-77
2022/07/29 01:22:36;;;;;;;2.70;1.80;;;18.60;99.90;;;;;;5114699;28;20259;-77
2022/07/29 01:25:23;;;;;;;1.90;1.60;;;18.60;99.90;;;;;;5114263;28;20235;-77
2022/07/29 01:28:08;;;;;;;3.10;1.53;;;18.60;99.90;;;;;;5114161;28;20556;-76
2022/07/29 01:30:45;;;;;;;3.03;1.67;;;18.60;99.90;;;;;;5114420;28;20198;-76
2022/07/29 01:36:02;;;;;;;2.07;1.80;;;18.50;99.90;;;;;;5113003;28;20255;-76
2022/07/29 01:38:30;;;;;;;2.10;1.90;;;18.50;99.90;;;;;;5114210;28;20186;-76
2022/07/29 01:41:05;;;;;;;2.00;1.70;;;18.40;99.90;;;;;;5113819;28;20262;-76
2022/07/29 01:43:40;;;;;;;3.20;1.90;;;18.40;99.90;;;;;;5113171;28;20264;-76
2022/07/29 01:46:15;;;;;;;2.07;1.60;;;18.30;99.90;;;;;;5113578;28;20190;-77
2022/07/29 01:48:48;;;;;;;1.30;1.30;;;18.30;99.90;;;;;;5113527;28;20185;-77
2022/07/29 01:51:21;;;;;;;3.50;1.70;;;18.30;99.90;;;;;;5114313;28;20201;-78
2022/07/29 01:53:59;;;;;;;2.83;1.73;;;18.30;99.90;;;;;;5113849;28;20183;-77
2022/07/29 01:56:32;;;;;;;1.90;1.80;;;18.20;99.90;;;;;;5113809;28;20218;-78
2022/07/29 01:59:02;;;;;;;2.00;1.70;;;18.20;99.90;;;;;;5113863;28;20202;-77
2022/07/29 02:01:35;;;;;;;2.37;1.80;;;18.10;99.90;;;;;;5114805;28;20668;-77
2022/07/29 02:04:07;;;;;;;3.20;1.60;;;18.10;99.90;;;;;;5114975;28;20694;-76
2022/07/29 02:06:41;;;;;;;2.53;1.90;;;18.10;99.90;;;;;;5119343;28;20269;-76
2022/07/29 02:09:12;;;;;;;2.10;1.90;;;18.00;99.90;;;;;;5113960;28;20209;-79
2022/07/29 02:11:45;;;;;;;2.60;1.80;;;18.00;99.90;;;;;;5116538;28;20257;-77
2022/07/29 02:14:16;;;;;;;1.97;1.77;;;18.00;99.90;;;;;;5118652;28;20289;-78
2022/07/29 02:16:48;;;;;;;2.47;1.80;;;18.00;99.90;;;;;;5115249;28;20654;-76
2022/07/29 02:19:19;;;;;;;2.40;1.80;;;18.00;99.90;;;;;;5114272;28;20194;-76
2022/07/29 02:21:49;;;;;;;3.03;1.83;;;17.90;99.90;;;;;;5113128;28;20370;-77
2022/07/29 02:24:19;;;;;;;1.90;1.70;;;17.90;99.90;;;;;;5113228;28;20225;-76
2022/07/29 02:26:51;;;;;;;2.90;1.90;;;17.90;99.90;;;;;;5113152;28;20292;-76
2022/07/29 02:29:22;;;;;;;3.97;1.87;;;17.90;99.90;;;;;;5116707;28;20206;-76
2022/07/29 02:31:53;;;;;;;2.17;1.80;;;17.90;99.90;;;;;;5117311;28;20229;-76
2022/07/29 02:34:22;;;;;;;2.03;1.83;;;17.90;99.90;;;;;;5117768;28;20241;-77
2022/07/29 02:36:51;;;;;;;3.53;2.10;;;17.80;99.90;;;;;;5117422;28;20263;-76
2022/07/29 02:39:24;;;;;;;3.23;1.90;;;17.90;99.90;;;;;;5116957;28;20210;-76
2022/07/29 02:41:58;;;;;;;2.07;1.77;;;17.90;99.90;;;;;;5116852;28;20295;-75
2022/07/29 02:44:27;;;;;;;2.47;2.07;;;18.00;99.90;;;;;;5117015;28;20218;-76
2022/07/29 02:47:10;;;;;;;2.57;2.00;;;17.90;99.90;;;;;;5117375;28;20209;-77
2022/07/29 02:49:43;;;;;;;2.17;1.90;;;18.00;99.90;;;;;;5116605;28;20193;-76
2022/07/29 02:52:18;;;;;;;2.30;1.90;;;18.00;99.90;;;;;;5117021;28;20285;-77
2022/07/29 02:54:54;;;;;;;1.87;1.77;;;18.00;99.90;;;;;;5117012;28;20605;-78
2022/07/29 02:57:29;;;;;;;2.10;1.90;;;18.00;99.90;;;;;;5116777;28;20194;-77
2022/07/29 03:00:03;;;;;;;2.00;1.80;;;18.00;99.90;;;;;;5116632;28;20236;-77
2022/07/29 03:02:36;;;;;;;1.93;1.77;;;18.00;99.90;;;;;;5108741;28;20237;-77
2022/07/29 03:05:07;;;;;;;1.70;1.60;;;18.10;99.90;;;;;;5116759;28;20273;-75
2022/07/29 03:07:39;;;;;;;1.80;1.70;;;18.10;99.90;;;;;;5116604;28;20219;-77
2022/07/29 03:10:09;;;;;;;4.23;2.20;;;18.10;99.90;;;;;;5116576;28;20210;-78
2022/07/29 03:12:41;;;;;;;2.63;1.80;;;18.10;99.90;;;;;;5116908;28;20269;-77
2022/07/29 03:15:13;;;;;;;2.70;1.83;;;18.10;99.90;;;;;;5123645;27;20205;-77
2022/07/29 03:17:43;;;;;;;3.57;1.87;;;18.10;99.90;;;;;;5137105;27;20183;-78
2022/07/29 03:20:13;;;;;;;2.33;1.80;;;18.10;99.90;;;;;;5138346;27;20265;-78
2022/07/29 03:22:43;;;;;;;2.20;2.00;;;18.00;99.90;;;;;;5128064;27;20209;-79
2022/07/29 03:25:13;;;;;;;2.23;1.90;;;18.10;99.90;;;;;;5135345;27;20260;-78
2022/07/29 03:27:41;;;;;;;3.63;2.10;;;18.00;99.90;;;;;;5120459;28;20210;-78
2022/07/29 03:30:11;;;;;;;2.10;1.90;;;18.00;99.90;;;;;;5131004;27;20217;-78
2022/07/29 03:32:46;;;;;;;3.10;2.00;;;18.00;99.90;;;;;;5141358;27;20250;-77
2022/07/29 03:35:18;;;;;;;3.30;1.80;;;17.90;99.90;;;;;;5140742;27;20201;-77
2022/07/29 03:37:46;;;;;;;2.93;2.07;;;17.90;99.90;;;;;;5140289;27;20198;-77
2022/07/29 03:40:19;;;;;;;3.03;1.90;;;17.90;99.90;;;;;;5137270;27;20204;-76
2022/07/29 03:42:49;;;;;;;3.30;2.07;;;17.90;99.90;;;;;;5123415;27;20310;-76
2022/07/29 03:45:19;;;;;;;2.70;1.87;;;17.80;99.90;;;;;;5116517;28;20289;-76
2022/07/29 03:47:54;;;;;;;2.53;1.90;;;17.80;99.90;;;;;;5116283;28;20214;-76
2022/07/29 03:50:29;;;;;;;2.40;1.97;;;17.70;99.90;;;;;;5116391;28;20194;-76
2022/07/29 03:52:58;;;;;;;4.20;2.10;;;17.70;99.90;;;;;;5130077;27;20206;-76
2022/07/29 03:55:30;;;;;;;2.10;1.90;;;17.70;99.90;;;;;;5136309;27;20236;-77
2022/07/29 03:58:01;;;;;;;2.80;2.00;;;17.60;99.90;;;;;;5136445;27;20217;-79
2022/07/29 04:00:30;;;;;;;3.53;2.00;;;17.50;99.90;;;;;;5136339;27;20205;-77
2022/07/29 04:03:00;;;;;;;5.73;2.10;;;17.50;99.90;;;;;;5136327;27;20728;-77
2022/07/29 04:05:29;;;;;;;4.53;2.13;;;17.50;99.90;;;;;;5135813;27;20217;-76
2022/07/29 04:08:00;;;;;;;4.07;2.17;;;17.40;99.90;;;;;;5136285;27;20193;-76
2022/07/29 04:10:29;;;;;;;5.07;2.20;;;17.40;99.90;;;;;;5135461;27;20278;-75
2022/07/29 04:13:01;;;;;;;3.27;2.20;;;17.40;99.90;;;;;;5136242;27;20194;-76
2022/07/29 04:15:31;;;;;;;2.90;2.23;;;17.40;99.90;;;;;;5130636;27;20300;-77
2022/07/29 04:18:04;;;;;;;4.13;2.33;;;17.30;99.90;;;;;;5132180;27;20625;-76
2022/07/29 04:20:32;;;;;;;4.43;2.50;;;17.30;99.90;;;;;;5114661;28;20190;-76
2022/07/29 04:23:00;;;;;;;3.43;2.30;;;17.20;99.90;;;;;;5127598;27;20206;-75
2022/07/29 04:25:28;;;;;;;2.80;2.30;;;17.20;99.90;;;;;;5134791;27;20241;-76
2022/07/29 04:28:03;;;;;;;5.93;2.37;;;17.20;99.90;;;;;;5127857;27;20233;-76
2022/07/29 04:30:33;;;;;;;2.40;2.20;;;17.20;99.90;;;;;;5114670;28;20230;-75
2022/07/29 04:33:04;;;;;;;3.07;2.20;;;17.10;99.90;;;;;;5114840;28;20206;-75
2022/07/29 04:35:36;;;;;;;2.60;2.33;;;17.10;99.90;;;;;;5127903;27;20201;-77
2022/07/29 04:38:14;;;;;;;3.40;2.23;;;17.10;99.90;;;;;;5135112;27;20190;-77
2022/07/29 04:40:44;;;;;;;2.97;2.43;;;17.00;99.90;;;;;;5122521;27;20222;-74
2022/07/29 04:43:14;;;;;;;4.47;2.30;;;17.10;99.90;;;;;;5114490;28;20239;-74
2022/07/29 04:45:43;;;;;;;2.63;2.43;;;17.10;99.90;;;;;;5114185;28;20230;-76
2022/07/29 04:48:13;;;;;;;3.20;2.40;;;17.10;99.90;;;;;;5114379;28;20237;-76
2022/07/29 04:50:41;;;;;;;3.33;2.33;;;17.10;99.90;;;;;;5113011;28;20206;-76
2022/07/29 04:53:10;;;;;;;3.80;2.30;;;17.10;99.90;;;;;;5114427;27;20297;-76
2022/07/29 04:55:38;;;;;;;3.53;2.23;;;17.10;99.90;;;;;;5113916;28;20222;-76
2022/07/29 04:58:07;;;;;;;3.00;2.27;;;17.20;99.90;;;;;;5114109;28;20206;-75
2022/07/29 05:00:35;;;;;;;3.93;2.30;;;17.20;99.90;;;;;;5113723;28;20251;-76
2022/07/29 05:03:04;;;;;;;4.80;2.37;;;17.30;99.90;;;;;;5114138;28;20293;-76
2022/07/29 05:05:34;;;;;;;5.43;2.30;;;17.30;99.90;;;;;;5113377;28;20583;-77
2022/07/29 05:08:04;;;;;;;2.87;2.20;;;17.40;99.90;;;;;;5113571;27;20229;-76
2022/07/29 05:10:37;;;;;;;4.03;2.40;;;17.40;99.90;;;;;;5112529;28;20249;-75
2022/07/29 05:13:07;;;;;;;3.23;2.23;;;17.50;99.90;;;;;;5113858;28;20199;-76
2022/07/29 05:15:37;;;;;;;2.63;2.40;;;17.60;99.90;;;;;;5133664;27;20293;-76
2022/07/29 05:18:05;;;;;;;3.70;2.27;;;17.80;99.90;;;;;;5123875;27;20208;-76
2022/07/29 05:20:35;;;;;;;3.80;2.23;;;17.90;99.90;;;;;;5134814;27;20291;-76
2022/07/29 05:23:04;;;;;;;3.57;2.30;;;18.00;99.90;;;;;;5134374;27;20296;-75
2022/07/29 05:25:33;;;;;;;3.27;2.23;;;18.10;99.90;;;;;;5133043;27;20286;-76
2022/07/29 05:28:12;;;;;;;2.63;2.40;;;18.20;99.90;;;;;;5134471;27;20202;-77
2022/07/29 05:30:40;;;;;;;3.77;2.37;;;18.40;99.90;;;;;;5133975;27;20202;-77
2022/07/29 05:33:08;;;;;;;3.60;2.40;;;18.50;99.90;;;;;;5134213;27;20216;-78
2022/07/29 05:35:58;;;;;;;2.03;1.80;;;18.70;99.90;;;;;;5133849;27;20668;-77
2022/07/29 05:38:29;;;;;;;4.77;1.90;;;18.90;99.90;;;;;;5134765;27;20622;-77
2022/07/29 05:40:58;;;;;;;5.37;2.20;;;18.90;99.90;;;;;;5134332;27;20221;-78
2022/07/29 05:43:27;;;;;;;7.07;2.20;;;19.10;99.90;;;;;;5133162;27;20273;-77
2022/07/29 05:45:56;;;;;;;2.50;2.00;;;19.10;99.90;;;;;;5134304;27;20278;-77
2022/07/29 05:48:25;;;;;;;3.90;2.00;;;19.10;99.90;;;;;;5135907;27;20201;-76
2022/07/29 05:50:53;;;;;;;2.87;2.10;;;19.10;99.90;;;;;;5134035;28;20253;-74
2022/07/29 05:53:23;;;;;;;3.03;2.00;;;19.20;99.90;;;;;;5133780;28;20221;-77
2022/07/29 05:55:52;;;;;;;3.97;1.90;;;19.20;99.90;;;;;;5134066;28;20194;-78
2022/07/29 05:58:24;;;;;;;3.53;1.70;;;19.30;99.90;;;;;;5134289;28;20201;-77
2022/07/29 06:00:52;;;;;;;2.30;1.70;;;19.40;99.90;;;;;;5133532;28;20221;-76
2022/07/29 06:03:20;;;;;;;1.60;1.50;;;19.80;99.90;;;;;;5137680;27;20731;-76
2022/07/29 06:05:49;;;;;;;3.30;1.60;;;20.40;99.90;;;;;;5137488;27;20726;-76
2022/07/29 06:08:22;;;;;;;2.67;1.40;;;21.20;99.90;;;;;;5137702;27;20251;-77
2022/07/29 06:10:55;;;;;;;1.63;1.50;;;21.90;99.90;;;;;;5137083;27;20317;-77
2022/07/29 06:13:24;;;;;;;3.00;1.50;;;22.70;99.90;;;;;;5137467;27;20229;-77
2022/07/29 06:15:52;;;;;;;1.63;1.33;;;23.60;99.90;;;;;;5137031;27;20728;-76
2022/07/29 06:18:23;;;;;;;1.93;1.33;;;24.40;99.90;;;;;;5136336;27;20258;-79
2022/07/29 06:20:51;;;;;;;1.50;1.40;;;24.60;99.90;;;;;;5137896;27;20292;-78
2022/07/29 06:23:22;;;;;;;1.87;1.30;;;24.40;99.90;;;;;;5137931;27;20236;-77
2022/07/29 06:25:52;;;;;;;2.20;1.20;;;24.00;99.90;;;;;;5137349;27;20229;-77
2022/07/29 06:28:20;;;;;;;4.23;2.10;;;23.80;99.90;;;;;;5138254;27;20281;-78
2022/07/29 06:30:49;;;;;;;1.50;1.40;;;23.70;99.90;;;;;;5137368;27;20304;-78
2022/07/29 06:33:20;;;;;;;1.53;1.40;;;23.90;99.90;;;;;;5134733;27;20212;-76
2022/07/29 06:35:49;;;;;;;2.30;1.50;;;24.20;99.90;;;;;;5116891;28;20263;-78
2022/07/29 06:38:22;;;;;;;3.17;1.20;;;24.20;99.90;;;;;;5116758;28;20194;-78
2022/07/29 06:41:04;;;;;;;1.37;1.20;;;24.40;99.90;;;;;;5116750;28;20198;-77
2022/07/29 06:43:35;;;;;;;1.33;1.23;;;24.80;99.90;;;;;;5116814;28;20213;-77
2022/07/29 06:46:22;;;;;;;1.60;1.33;;;25.20;99.90;;;;;;5116945;28;20233;-80
2022/07/29 06:48:52;;;;;;;1.40;1.30;;;26.40;99.90;;;;;;5117521;28;20283;-79
2022/07/29 06:51:21;;;;;;;1.33;1.23;;;27.30;99.90;;;;;;5117787;28;20210;-80
2022/07/29 06:53:52;;;;;;;1.23;1.10;;;27.80;99.90;;;;;;5116997;28;20635;-78
2022/07/29 06:56:31;;;;;;;1.05;1.02;;;28.80;99.60;;;;;;5116354;28;20399;-80
2022/07/29 06:59:09;;;;;;;1.35;1.20;;;28.90;98.90;;;;;;5116172;28;20262;-82
2022/07/29 07:01:38;;;;;;;1.38;1.17;;;29.90;97.70;;;;;;5116845;28;20205;-81
2022/07/29 07:04:08;;;;;;;2.25;1.00;;;30.70;95.10;;;;;;5116213;28;20213;-82
2022/07/29 07:06:36;;;;;;;2.20;1.33;;;31.20;92.40;;;;;;5116886;28;20232;-79
2022/07/29 07:09:05;;;;;;;2.65;1.40;;;31.30;93.20;;;;;;5117898;27;20300;-81
2022/07/29 07:11:34;;;;;;;1.40;1.30;;;30.90;92.00;;;;;;5118211;28;20230;-80
2022/07/29 07:14:03;;;;;;;3.70;1.50;;;30.70;92.20;;;;;;5117143;28;20255;-82
2022/07/29 07:16:32;;;;;;;1.70;1.48;;;30.20;92.20;;;;;;5118247;27;20214;-80
2022/07/29 07:19:01;;;;;;;1.90;1.65;;;30.40;93.10;;;;;;5135896;27;20630;-81
2022/07/29 07:21:34;;;;;;;1.73;1.63;;;30.00;92.30;;;;;;5136347;27;20261;-80
2022/07/29 07:24:03;;;;;;;2.25;1.60;;;30.20;93.20;;;;;;5136468;27;20186;-82
2022/07/29 07:26:32;;;;;;;4.78;1.70;;;30.70;91.90;;;;;;5136595;27;20239;-81
2022/07/29 07:29:01;;;;;;;1.95;1.60;;;30.90;91.00;;;;;;5116802;27;20302;-79
2022/07/29 07:31:30;;;;;;;1.63;1.50;;;31.20;90.40;;;;;;5115539;28;20241;-80
2022/07/29 07:33:58;;;;;;;2.45;1.70;;;31.80;89.60;;;;;;5116196;28;20213;-83
2022/07/29 07:36:31;;;;;;;1.75;1.45;;;31.60;86.90;;;;;;5115959;28;20213;-83
2022/07/29 07:39:00;;;;;;;1.88;1.67;;;31.60;85.30;;;;;;5115534;28;20259;-79
2022/07/29 07:41:28;;;;;;;1.58;1.48;;;31.00;86.80;;;;;;5115509;28;20252;-83
2022/07/29 07:44:01;;;;;;;2.13;1.30;;;31.20;86.60;;;;;;5115558;28;20210;-80
2022/07/29 07:46:29;;;;;;;1.20;1.20;;;32.00;83.80;;;;;;5115738;28;20287;-78
2022/07/29 07:48:57;;;;;;;1.38;1.27;;;32.10;83.10;;;;;;5115096;28;20210;-79
2022/07/29 07:51:26;;;;;;;1.65;1.40;;;32.20;83.10;;;;;;5115119;28;20237;-82
2022/07/29 07:53:57;;;;;;;3.67;1.50;;;32.80;81.10;;;;;;5115686;28;20259;-77
2022/07/29 07:56:25;;;;;;;1.55;1.45;;;33.60;78.50;;;;;;5115268;28;20268;-79
2022/07/29 07:58:53;;;;;;;1.50;1.40;;;33.60;78.70;;;;;;5114696;28;20210;-79
2022/07/29 08:01:22;;;;;;;1.40;1.30;;;33.80;79.80;;;;;;5116388;28;20249;-78
2022/07/29 08:03:51;;;;;;;2.85;1.52;;;33.70;76.30;;;;;;5114937;28;20744;-79
2022/07/29 08:06:19;;;;;;;1.48;1.38;;;33.70;76.50;;;;;;5114484;28;20222;-80
2022/07/29 08:08:47;;;;;;;1.73;1.60;;;34.00;77.00;;;;;;5120878;28;20226;-79
2022/07/29 08:11:16;;;;;;;1.95;1.85;;;34.40;74.40;;;;;;5141361;27;20246;-80
2022/07/29 08:13:44;;;;;;;1.92;1.58;;;34.40;75.90;;;;;;5139111;27;20206;-80
2022/07/29 08:16:15;;;;;;;3.40;1.60;;;34.50;72.10;;;;;;5137927;27;20209;-77
2022/07/29 08:18:46;;;;;;;2.15;1.40;;;34.40;73.10;;;;;;5140034;27;20190;-78
2022/07/29 08:21:16;;;;;;;1.60;1.50;;;34.30;75.30;;;;;;5143566;27;20190;-80
2022/07/29 08:23:49;;;;;;;1.40;1.35;;;34.00;75.10;;;;;;5140216;27;20205;-78
2022/07/29 08:26:27;;;;;;;1.60;1.50;;;33.80;73.70;;;;;;5133023;27;20225;-81
2022/07/29 08:28:56;;;;;;;2.25;1.30;;;33.80;75.80;;;;;;5117725;28;20251;-83
2022/07/29 08:31:27;;;;;;;2.65;1.50;;;33.40;75.80;;;;;;5124477;27;20202;-80
2022/07/29 08:33:59;;;;;;;2.65;1.50;;;33.60;76.40;;;;;;5135133;27;20280;-81
2022/07/29 08:36:28;;;;;;;1.60;1.50;;;33.90;75.20;;;;;;5134814;27;20604;-80
2022/07/29 08:38:56;;;;;;;3.00;1.70;;;33.60;73.40;;;;;;5134660;27;20233;-79
2022/07/29 08:41:24;;;;;;;2.28;1.48;;;33.50;73.70;;;;;;5134075;27;20724;-80
2022/07/29 08:43:53;;;;;;;3.80;1.58;;;33.50;74.00;;;;;;5123454;27;20248;-83
2022/07/29 08:46:22;;;;;;;1.67;1.58;;;33.20;73.50;;;;;;5114220;28;20624;-77
2022/07/29 08:48:51;;;;;;;1.48;1.38;;;33.00;76.80;;;;;;5113407;28;20209;-78
2022/07/29 08:51:24;;;;;;;1.50;1.40;;;33.40;75.30;;;;;;5114062;28;20214;-79
2022/07/29 08:53:56;;;;;;;4.68;1.58;;;33.60;73.50;;;;;;5114204;28;20189;-79
2022/07/29 08:56:24;;;;;;;2.53;1.70;;;33.50;74.60;;;;;;5113820;28;20198;-80
2022/07/29 08:58:55;;;;;;;1.45;1.35;;;33.70;71.10;;;;;;5114056;28;20243;-80
2022/07/29 09:01:26;;;;;;;1.70;1.58;;;33.90;76.40;;;;;;5114268;28;20187;-83
2022/07/29 09:04:06;;;;;;;2.08;1.50;;;33.90;72.70;;;;;;5113763;28;20213;-80
2022/07/29 09:06:39;;;;;;;1.83;1.50;;;33.70;74.50;;;;;;5113325;28;20701;-79
2022/07/29 09:09:09;;;;;;;1.77;1.40;;;33.70;78.10;;;;;;5127210;27;20224;-82
2022/07/29 09:11:37;;;;;;;4.50;1.60;;;34.40;76.00;;;;;;5134303;27;20282;-80
2022/07/29 09:14:06;;;;;;;2.67;1.67;;;34.20;70.70;;;;;;5134093;27;20209;-81
2022/07/29 09:16:47;;;;;;;2.25;1.48;;;34.20;73.60;;;;;;5134408;27;20190;-78
2022/07/29 09:19:31;;;;;;;1.60;1.50;;;34.70;70.90;;;;;;5133368;27;20212;-79
2022/07/29 09:22:02;;;;;;;4.47;1.50;;;34.90;70.00;;;;;;5133545;27;20194;-82
2022/07/29 09:24:42;;;;;;;2.15;1.70;;;35.00;70.00;;;;;;5134249;27;20640;-81
2022/07/29 09:27:22;;;;;;;2.00;1.73;;;35.50;71.00;;;;;;5133553;27;20217;-81
2022/07/29 09:29:58;;;;;;;2.92;1.50;;;35.20;71.20;;;;;;5133652;27;20253;-81
2022/07/29 09:32:27;;;;;;;1.65;1.40;;;35.10;69.30;;;;;;5133764;27;20604;-78
2022/07/29 09:35:17;;;;;;;3.33;1.60;;;35.40;68.90;;;;;;5134571;27;20204;-81
2022/07/29 09:37:48;;;;;;;1.75;1.50;;;35.10;69.20;;;;;;5135413;27;20194;-76
2022/07/29 09:40:18;;;;;;;2.88;1.40;;;35.40;62.10;;;;;;5133475;27;20223;-79
2022/07/29 09:42:47;;;;;;;1.45;1.30;;;34.80;62.30;;;;;;5133278;27;20245;-79
2022/07/29 09:45:28;;;;;;;2.90;1.55;;;34.20;68.30;;;;;;5133417;27;20210;-80
2022/07/29 09:47:58;;;;;;;1.95;1.52;;;33.30;71.60;;;;;;5133235;27;20304;-77
2022/07/29 09:50:38;;;;;;;3.72;1.70;;;32.60;74.20;;;;;;5133328;27;20293;-79
2022/07/29 09:53:09;;;;;;;1.90;1.63;;;32.60;71.80;;;;;;5133234;28;20205;-78
2022/07/29 09:55:49;;;;;;;4.10;1.80;;;33.30;70.70;;;;;;5133400;28;20667;-78
2022/07/29 09:58:21;;;;;;;3.90;1.85;;;33.90;74.10;;;;;;5133805;28;20219;-80
2022/07/29 10:00:51;;;;;;;2.83;1.70;;;34.50;73.00;;;;;;5133704;28;20292;-81
2022/07/29 10:03:20;;;;;;;3.47;1.80;;;34.70;71.00;;;;;;5132875;28;20658;-81
2022/07/29 10:06:08;;;;;;;2.60;1.80;;;34.40;67.30;;;;;;5133062;28;20205;-80
2022/07/29 10:08:39;;;;;;;4.97;2.15;;;34.30;73.30;;;;;;5132946;28;20266;-80
2022/07/29 10:11:13;;;;;;;1.98;1.83;;;34.20;70.40;;;;;;5133293;28;20384;-79
2022/07/29 10:13:42;;;;;;;6.35;1.80;;;33.50;73.70;;;;;;5133259;28;20249;-79
2022/07/29 10:16:11;;;;;;;2.83;2.08;;;33.00;73.00;;;;;;5133480;28;20206;-76
2022/07/29 10:18:41;;;;;;;2.63;1.83;;;32.20;73.20;;;;;;5132893;28;20192;-77
2022/07/29 10:21:11;;;;;;;3.78;1.80;;;31.90;74.30;;;;;;5133039;28;20233;-79
2022/07/29 10:24:02;;;;;;;2.63;1.60;;;31.70;74.20;;;;;;5133114;28;20208;-77
2022/07/29 10:26:31;;;;;;;2.83;1.90;;;31.00;82.40;;;;;;5132938;28;20198;-76
2022/07/29 10:28:59;;;;;;;3.65;1.90;;;31.10;73.80;;;;;;5132500;28;20686;-80
2022/07/29 10:31:37;;;;;;;2.28;1.70;;;31.00;74.90;;;;;;5133081;28;20630;-80
2022/07/29 10:34:15;;;;;;;2.90;1.77;;;31.20;76.30;;;;;;5132969;28;20230;-79
2022/07/29 10:36:55;;;;;;;2.88;1.80;;;31.60;76.20;;;;;;5132545;28;20643;-79
2022/07/29 10:39:39;;;;;;;3.10;1.75;;;31.90;81.10;;;;;;5133485;28;20281;-78
2022/07/29 10:42:20;;;;;;;2.20;1.80;;;32.90;77.00;;;;;;5132530;28;20287;-80
2022/07/29 10:45:04;;;;;;;3.97;1.80;;;33.50;75.20;;;;;;5133231;28;20185;-79
2022/07/29 10:47:33;;;;;;;3.58;1.70;;;33.40;74.30;;;;;;5132975;27;20201;-78
2022/07/29 10:50:04;;;;;;;2.10;1.63;;;33.50;73.50;;;;;;5135956;27;20291;-79
2022/07/29 10:52:57;;;;;;;3.75;1.75;;;32.90;74.40;;;;;;5137873;27;20245;-79
2022/07/29 10:55:42;;;;;;;3.67;1.70;;;32.10;77.90;;;;;;5137961;27;20229;-80
2022/07/29 10:58:16;;;;;;;2.53;1.95;;;31.50;77.30;;;;;;5125506;27;20621;-78
2022/07/29 11:00:47;;;;;;;3.60;1.85;;;31.20;80.80;;;;;;5137822;27;20196;-79
2022/07/29 11:03:44;;;;;;;2.70;2.00;;;31.10;79.90;;;;;;5125060;27;20206;-77
2022/07/29 11:06:19;;;;;;;5.10;2.20;;;31.30;83.90;;;;;;5133450;27;20205;-79
2022/07/29 11:09:19;;;;;;;4.57;1.95;;;31.50;80.80;;;;;;5136756;27;20313;-76
2022/07/29 11:12:03;;;;;;;2.75;1.73;;;32.20;81.50;;;;;;5135645;27;20229;-78
2022/07/29 11:14:56;;;;;;;4.43;1.90;;;33.00;82.00;;;;;;5135853;27;20201;-79
2022/07/29 11:17:26;;;;;;;5.15;1.90;;;33.40;80.60;;;;;;5136462;27;20201;-79
2022/07/29 11:20:34;;;;;;;3.88;1.83;;;34.20;73.20;;;;;;5136568;27;20227;-81
2022/07/29 11:23:26;;;;;;;2.33;1.80;;;34.60;72.40;;;;;;5136651;27;20300;-81
2022/07/29 11:26:16;;;;;;;2.38;1.90;;;34.70;72.80;;;;;;5135664;27;20636;-82
2022/07/29 11:32:14;;;;;;;4.30;1.98;;;34.30;71.40;;;;;;5130879;27;20288;-79
2022/07/29 11:35:21;;;;;;;3.65;1.90;;;33.70;74.80;;;;;;5136561;27;20211;-81
2022/07/29 11:38:27;;;;;;;6.10;2.10;;;33.40;76.40;;;;;;5135828;27;20197;-80
2022/07/29 11:41:24;;;;;;;3.65;1.85;;;33.20;77.50;;;;;;5137909;27;20193;-79
2022/07/29 11:43:55;;;;;;;2.40;2.10;;;32.60;76.40;;;;;;5136325;27;20652;-79
2022/07/29 11:46:47;;;;;;;3.80;2.35;;;32.60;76.80;;;;;;5137201;27;20244;-79
2022/07/29 11:49:21;;;;;;;5.35;2.20;;;32.90;74.90;;;;;;5131139;27;20225;-79
2022/07/29 11:52:02;;;;;;;3.70;2.13;;;32.60;75.40;;;;;;5136023;27;20190;-76
2022/07/29 11:54:39;;;;;;;3.67;2.03;;;32.20;79.70;;;;;;5137160;27;20285;-79
2022/07/29 11:57:26;;;;;;;3.80;2.10;;;31.80;79.50;;;;;;5137027;27;20189;-77
2022/07/29 12:00:08;;;;;;;2.78;2.20;;;31.50;81.60;;;;;;5135500;27;20189;-76
2022/07/29 12:02:42;;;;;;;3.33;1.85;;;31.40;81.70;;;;;;5137953;27;20196;-77
2022/07/29 12:05:16;;;;;;;2.20;1.88;;;31.40;81.00;;;;;;5135722;27;20202;-77
2022/07/29 12:08:16;;;;;;;4.30;2.05;;;31.00;80.70;;;;;;5134964;27;20209;-75
2022/07/29 12:10:45;;;;;;;4.07;2.20;;;31.40;83.50;;;;;;5135599;27;20229;-77
2022/07/29 12:13:19;;;;;;;2.95;2.10;;;31.70;83.60;;;;;;5135209;27;20698;-80
2022/07/29 12:15:57;;;;;;;4.45;2.22;;;31.90;78.90;;;;;;5135826;27;20235;-77
2022/07/29 12:18:28;;;;;;;5.43;2.20;;;31.20;80.80;;;;;;5135356;27;20217;-77
2022/07/29 12:21:03;;;;;;;2.30;2.08;;;31.00;82.70;;;;;;5135834;27;20212;-76
2022/07/29 12:23:32;;;;;;;4.32;2.00;;;30.90;79.70;;;;;;5136697;27;20189;-74
2022/07/29 12:26:04;;;;;;;3.13;2.00;;;30.60;79.00;;;;;;5135770;27;20193;-76
2022/07/29 12:28:38;;;;;;;2.85;1.80;;;30.40;77.00;;;;;;5135313;27;20300;-75
2022/07/29 12:31:13;;;;;;;3.30;1.98;;;30.60;76.90;;;;;;5133431;27;20198;-79
2022/07/29 12:34:03;;;;;;;3.47;1.90;;;30.70;80.00;;;;;;5134112;27;20296;-77
2022/07/29 12:36:31;;;;;;;2.97;1.90;;;31.10;76.90;;;;;;5134339;27;20560;-77
2022/07/29 12:39:01;;;;;;;2.53;1.90;;;31.50;75.00;;;;;;5133084;27;20198;-75
2022/07/29 12:41:30;;;;;;;6.28;2.15;;;31.80;77.10;;;;;;5131437;27;20201;-76
2022/07/29 12:43:58;;;;;;;5.47;1.80;;;31.70;76.00;;;;;;5131888;27;20826;-75
2022/07/29 12:46:27;;;;;;;3.00;1.75;;;31.70;73.20;;;;;;5133085;27;20246;-75
2022/07/29 12:48:56;;;;;;;5.47;2.03;;;31.40;76.30;;;;;;5132602;27;20703;-75
2022/07/29 12:51:32;;;;;;;2.38;1.75;;;31.20;74.70;;;;;;5134006;27;20205;-75
2022/07/29 12:54:06;;;;;;;3.53;1.77;;;30.80;76.50;;;;;;5134165;27;20687;-76
2022/07/29 12:56:35;;;;;;;4.33;1.80;;;30.40;73.70;;;;;;5134092;27;20209;-74
2022/07/29 13:00:07;;;;;;;2.17;1.73;;;30.30;77.10;;;;;;5024497;28;20605;-75
2022/07/29 13:02:35;;;;;;;4.70;2.00;;;30.50;76.80;;;;;;5022503;28;20207;-76
2022/07/29 13:05:06;;;;;;;3.30;1.87;;;30.60;78.30;;;;;;5027576;28;20690;-77
2022/07/29 13:07:36;;;;;;;4.93;1.90;;;30.30;76.60;;;;;;5028429;28;20248;-74
2022/07/29 13:10:24;;;;;;;3.57;1.90;;;30.00;74.50;;;;;;5009670;28;20224;-76
2022/07/29 13:13:07;;;;;;;4.80;2.10;;;29.50;78.20;;;;;;5020658;28;20196;-76
2022/07/29 13:15:38;;;;;;;2.37;1.70;;;29.30;81.60;;;;;;5027599;28;20205;-78
2022/07/29 13:18:27;;;;;;;2.30;1.90;;;29.10;79.60;;;;;;5024963;28;20409;-76
2022/07/29 13:20:55;;;;;;;4.50;2.13;;;28.90;79.70;;;;;;5029911;28;20232;-79
2022/07/29 13:23:23;;;;;;;4.80;1.80;;;28.70;79.60;;;;;;5029244;28;20228;-76
2022/07/29 13:25:52;;;;;;;5.63;1.93;;;28.60;82.50;;;;;;5029556;28;20614;-78
2022/07/29 13:28:22;;;;;;;4.13;1.87;;;28.40;79.20;;;;;;5029396;28;20243;-76